createdAt,value
2023-02-20T00:00:53.815Z,19.80
2023-02-20T00:01:57.184Z,19.90
2023-02-20T00:02:59.569Z,19.80
2023-02-20T00:04:01.931Z,19.80
2023-02-20T00:05:04.596Z,19.80
2023-02-20T00:06:07.176Z,19.80
2023-02-20T00:07:09.620Z,19.80
2023-02-20T00:08:11.989Z,19.80
2023-02-20T00:09:14.611Z,19.80
2023-02-20T00:10:17.750Z,19.80
2023-02-20T00:11:20.099Z,19.80
2023-02-20T00:12:22.411Z,19.80
2023-02-20T00:13:24.818Z,19.80
2023-02-20T00:14:27.111Z,19.80
2023-02-20T00:15:29.430Z,19.80
2023-02-20T00:16:31.788Z,19.70
2023-02-20T00:17:34.215Z,19.70
2023-02-20T00:18:36.703Z,19.80
2023-02-20T00:19:38.999Z,19.80
2023-02-20T00:20:41.458Z,19.80
2023-02-20T00:21:48.378Z,19.70
2023-02-20T00:22:51.851Z,19.80
2023-02-20T00:23:54.165Z,19.70
2023-02-20T00:24:56.459Z,19.70
2023-02-20T00:25:58.796Z,19.70
2023-02-20T00:27:02.135Z,19.70
2023-02-20T00:28:04.911Z,19.70
2023-02-20T00:29:07.255Z,19.70
2023-02-20T00:30:23.263Z,19.70
2023-02-20T00:31:25.937Z,19.70
2023-02-20T00:32:28.378Z,19.70
2023-02-20T00:33:31.333Z,19.70
2023-02-20T00:34:33.628Z,19.70
2023-02-20T00:35:38.311Z,19.70
2023-02-20T00:36:40.697Z,19.70
2023-02-20T00:37:43.087Z,19.80
2023-02-20T00:38:47.396Z,19.70
2023-02-20T00:39:49.902Z,19.70
2023-02-20T00:40:52.175Z,19.70
2023-02-20T00:41:56.323Z,19.70
2023-02-20T00:42:58.652Z,19.70
2023-02-20T00:44:02.879Z,19.70
2023-02-20T00:45:06.408Z,19.70
2023-02-20T00:46:12.933Z,19.70
2023-02-20T00:47:15.745Z,19.70
2023-02-20T00:48:18.102Z,19.70
2023-02-20T00:49:20.419Z,19.70
2023-02-20T00:50:23.112Z,19.70
2023-02-20T00:51:27.457Z,19.80
2023-02-20T00:52:29.803Z,19.80
2023-02-20T00:53:32.050Z,19.80
2023-02-20T00:54:34.447Z,19.70
2023-02-20T00:55:36.728Z,19.70
2023-02-20T00:56:39.000Z,19.70
2023-02-20T00:57:41.595Z,19.70
2023-02-20T00:58:43.923Z,19.70
2023-02-20T00:59:46.463Z,19.70
2023-02-20T01:00:48.780Z,19.70
2023-02-20T01:01:51.162Z,19.70
2023-02-20T01:02:53.916Z,19.70
2023-02-20T01:03:58.550Z,19.70
2023-02-20T01:05:00.876Z,19.70
2023-02-20T01:06:04.555Z,19.70
2023-02-20T01:07:06.874Z,19.70
2023-02-20T01:08:09.164Z,19.70
2023-02-20T01:09:12.102Z,19.70
2023-02-20T01:10:14.947Z,19.70
2023-02-20T01:11:17.524Z,19.70
2023-02-20T01:12:19.916Z,19.70
2023-02-20T01:13:22.449Z,19.70
2023-02-20T01:14:25.177Z,19.60
2023-02-20T01:15:27.471Z,19.70
2023-02-20T01:16:31.707Z,19.70
2023-02-20T01:17:34.892Z,19.70
2023-02-20T01:18:37.219Z,19.70
2023-02-20T01:19:39.548Z,19.60
2023-02-20T01:20:41.905Z,19.60
2023-02-20T01:21:44.236Z,19.60
2023-02-20T01:22:47.152Z,19.60
2023-02-20T01:23:49.490Z,19.60
2023-02-20T01:24:51.776Z,19.60
2023-02-20T01:25:54.067Z,19.60
2023-02-20T01:26:56.389Z,19.60
2023-02-20T01:27:58.710Z,19.60
2023-02-20T01:29:01.066Z,19.60
2023-02-20T01:30:06.311Z,19.60
2023-02-20T01:31:08.896Z,19.60
2023-02-20T01:32:12.743Z,19.60
2023-02-20T01:33:15.090Z,19.60
2023-02-20T01:34:18.762Z,19.60
2023-02-20T01:35:21.071Z,19.60
2023-02-20T01:36:23.377Z,19.60
2023-02-20T01:37:25.832Z,19.60
2023-02-20T01:38:28.376Z,19.60
2023-02-20T01:39:31.293Z,19.60
2023-02-20T01:40:34.827Z,19.60
2023-02-20T01:41:37.189Z,19.60
2023-02-20T01:42:39.656Z,19.60
2023-02-20T01:43:41.928Z,19.60
2023-02-20T01:44:44.540Z,19.60
2023-02-20T01:45:46.855Z,19.60
2023-02-20T01:46:52.264Z,19.60
2023-02-20T01:47:58.035Z,19.60
2023-02-20T01:49:11.814Z,19.60
2023-02-20T01:50:14.976Z,19.60
2023-02-20T01:51:17.573Z,19.60
2023-02-20T01:52:29.153Z,19.60
2023-02-20T01:53:32.375Z,19.60
2023-02-20T01:54:37.152Z,19.30
2023-02-20T01:55:51.521Z,19.00
2023-02-20T01:56:56.919Z,18.70
2023-02-20T01:58:20.801Z,18.80
2023-02-20T01:59:25.018Z,18.70
2023-02-20T02:00:27.986Z,18.70
2023-02-20T02:01:33.797Z,18.70
2023-02-20T02:02:41.162Z,18.60
2023-02-20T02:03:47.444Z,18.60
2023-02-20T02:04:51.614Z,18.60
2023-02-20T02:05:59.899Z,18.60
2023-02-20T02:07:02.699Z,18.50
2023-02-20T02:08:08.333Z,18.50
2023-02-20T02:09:28.110Z,18.60
2023-02-20T02:10:37.106Z,18.60
2023-02-20T02:11:39.484Z,18.50
2023-02-20T02:12:45.690Z,18.40
2023-02-20T02:13:48.192Z,18.40
2023-02-20T02:14:50.609Z,18.40
2023-02-20T02:16:00.973Z,18.40
2023-02-20T02:17:17.877Z,18.40
2023-02-20T02:18:53.467Z,18.30
2023-02-20T02:20:16.215Z,18.30
2023-02-20T02:21:26.952Z,18.30
2023-02-20T02:23:03.072Z,18.20
2023-02-20T02:24:39.444Z,18.20
2023-02-20T02:26:01.494Z,18.20
2023-02-20T02:27:22.058Z,18.20
2023-02-20T02:28:32.880Z,18.20
2023-02-20T02:29:42.448Z,18.20
2023-02-20T02:31:17.239Z,18.30
2023-02-20T02:32:52.964Z,18.30
2023-02-20T02:34:12.508Z,18.10
2023-02-20T02:35:34.582Z,18.00
2023-02-20T02:36:53.408Z,17.90
2023-02-20T02:38:23.499Z,17.80
2023-02-20T02:40:00.762Z,17.70
2023-02-20T02:41:35.487Z,17.70
2023-02-20T02:42:46.056Z,17.90
2023-02-20T02:43:53.908Z,17.90
2023-02-20T02:45:21.163Z,17.90
2023-02-20T02:46:30.513Z,17.70
2023-02-20T02:47:41.144Z,17.60
2023-02-20T02:48:51.344Z,17.50
2023-02-20T02:50:29.630Z,17.40
2023-02-20T02:51:37.350Z,17.40
2023-02-20T02:52:48.696Z,17.40
2023-02-20T02:54:11.105Z,17.30
2023-02-20T02:55:26.902Z,17.30
2023-02-20T02:56:38.965Z,17.30
2023-02-20T02:57:41.479Z,17.30
2023-02-20T02:58:43.826Z,17.20
2023-02-20T02:59:48.191Z,17.20
2023-02-20T03:00:57.973Z,17.30
2023-02-20T03:02:09.283Z,17.20
2023-02-20T03:03:25.854Z,17.00
2023-02-20T03:04:30.094Z,16.90
2023-02-20T03:05:56.732Z,17.00
2023-02-20T03:07:03.545Z,17.20
2023-02-20T03:08:22.441Z,17.50
2023-02-20T03:09:29.427Z,17.60
2023-02-20T03:10:32.216Z,17.70
2023-02-20T03:11:36.576Z,17.80
2023-02-20T03:12:44.963Z,17.90
2023-02-20T03:14:08.899Z,17.90
2023-02-20T03:15:34.938Z,18.00
2023-02-20T03:17:10.983Z,18.00
2023-02-20T03:18:39.450Z,17.90
2023-02-20T03:19:47.579Z,17.60
2023-02-20T03:20:54.065Z,17.50
2023-02-20T03:21:58.174Z,17.40
2023-02-20T03:23:04.446Z,17.30
2023-02-20T03:24:09.682Z,17.30
2023-02-20T03:25:33.539Z,17.30
2023-02-20T03:26:37.808Z,17.20
2023-02-20T03:27:55.408Z,17.10
2023-02-20T03:29:30.453Z,17.20
2023-02-20T03:30:48.607Z,17.10
2023-02-20T03:32:15.761Z,17.10
2023-02-20T03:33:39.303Z,17.10
2023-02-20T03:35:02.544Z,17.10
2023-02-20T03:36:27.488Z,17.00
2023-02-20T03:37:52.145Z,17.10
2023-02-20T03:39:21.529Z,17.00
2023-02-20T03:40:43.558Z,17.00
2023-02-20T03:42:07.856Z,17.00
2023-02-20T03:43:24.720Z,16.90
2023-02-20T03:44:32.095Z,16.90
2023-02-20T03:45:37.866Z,16.90
2023-02-20T03:46:43.149Z,16.90
2023-02-20T03:47:49.368Z,16.80
2023-02-20T03:49:21.180Z,16.90
2023-02-20T03:50:42.201Z,16.80
2023-02-20T03:51:44.894Z,17.10
2023-02-20T03:53:02.236Z,17.20
2023-02-20T03:54:04.968Z,17.30
2023-02-20T03:55:10.005Z,17.40
2023-02-20T03:56:36.871Z,17.40
2023-02-20T03:57:45.508Z,17.50
2023-02-20T03:58:55.084Z,17.60
2023-02-20T04:00:10.299Z,17.60
2023-02-20T04:01:25.515Z,17.70
2023-02-20T04:02:39.306Z,17.80
2023-02-20T04:03:45.429Z,17.80
2023-02-20T04:04:55.799Z,17.80
2023-02-20T04:06:00.700Z,17.80
2023-02-20T04:07:19.319Z,17.80
2023-02-20T04:08:35.803Z,17.80
2023-02-20T04:09:42.403Z,17.90
2023-02-20T04:11:00.719Z,17.90
2023-02-20T04:12:14.777Z,17.90
2023-02-20T04:13:19.450Z,17.90
2023-02-20T04:14:28.395Z,17.90
2023-02-20T04:15:33.740Z,18.00
2023-02-20T04:16:45.738Z,18.00
2023-02-20T04:17:56.374Z,18.00
2023-02-20T04:18:58.708Z,18.00
2023-02-20T04:20:01.363Z,18.00
2023-02-20T04:21:12.997Z,18.00
2023-02-20T04:22:23.839Z,18.00
2023-02-20T04:23:27.971Z,17.90
2023-02-20T04:24:36.485Z,17.90
2023-02-20T04:25:44.348Z,17.90
2023-02-20T04:26:47.543Z,17.90
2023-02-20T04:27:50.092Z,17.90
2023-02-20T04:28:53.285Z,17.80
2023-02-20T04:29:55.632Z,17.80
2023-02-20T04:30:57.964Z,17.80
2023-02-20T04:32:00.761Z,17.80
2023-02-20T04:33:09.849Z,17.80
2023-02-20T04:34:12.606Z,17.80
2023-02-20T04:35:20.882Z,17.80
2023-02-20T04:36:26.637Z,17.80
2023-02-20T04:37:31.341Z,17.90
2023-02-20T04:38:34.453Z,17.70
2023-02-20T04:39:39.412Z,17.50
2023-02-20T04:40:42.096Z,17.20
2023-02-20T04:41:44.601Z,16.90
2023-02-20T04:42:47.178Z,16.80
2023-02-20T04:43:49.590Z,16.60
2023-02-20T04:44:52.192Z,16.50
2023-02-20T04:45:54.714Z,16.40
2023-02-20T04:46:59.614Z,16.30
2023-02-20T04:48:01.945Z,16.30
2023-02-20T04:49:04.997Z,16.20
2023-02-20T04:50:08.406Z,16.40
2023-02-20T04:51:11.132Z,16.90
2023-02-20T04:52:13.808Z,17.20
2023-02-20T04:53:17.099Z,17.50
2023-02-20T04:54:19.729Z,17.70
2023-02-20T04:55:22.741Z,18.00
2023-02-20T04:56:27.336Z,18.20
2023-02-20T04:57:30.221Z,18.40
2023-02-20T04:58:36.748Z,18.60
2023-02-20T04:59:46.590Z,18.70
2023-02-20T05:00:50.227Z,18.80
2023-02-20T05:01:54.803Z,18.90
2023-02-20T05:02:58.064Z,19.00
2023-02-20T05:04:00.656Z,19.10
2023-02-20T05:05:03.027Z,19.20
2023-02-20T05:06:05.559Z,19.20
2023-02-20T05:07:07.836Z,19.30
2023-02-20T05:08:10.226Z,19.30
2023-02-20T05:09:12.535Z,19.30
2023-02-20T05:10:20.674Z,19.40
2023-02-20T05:11:23.455Z,19.40
2023-02-20T05:12:25.853Z,19.40
2023-02-20T05:13:28.169Z,19.50
2023-02-20T05:14:30.498Z,19.50
2023-02-20T05:15:33.149Z,19.50
2023-02-20T05:16:40.954Z,19.50
2023-02-20T05:17:43.425Z,19.50
2023-02-20T05:18:45.815Z,19.50
2023-02-20T05:19:48.271Z,19.60
2023-02-20T05:21:09.320Z,19.60
2023-02-20T05:22:22.013Z,19.60
2023-02-20T05:23:24.293Z,19.60
2023-02-20T05:24:28.383Z,19.70
2023-02-20T05:25:30.801Z,19.70
2023-02-20T05:26:33.103Z,19.70
2023-02-20T05:27:35.484Z,19.70
2023-02-20T05:28:39.719Z,19.80
2023-02-20T05:29:59.048Z,19.80
2023-02-20T05:31:01.401Z,19.80
2023-02-20T05:32:03.837Z,19.70
2023-02-20T05:33:06.193Z,19.80
2023-02-20T05:34:08.958Z,19.80
2023-02-20T05:35:11.282Z,19.80
2023-02-20T05:36:14.326Z,19.80
2023-02-20T05:37:18.914Z,19.80
2023-02-20T05:38:21.316Z,19.90
2023-02-20T05:39:23.636Z,19.80
2023-02-20T05:40:25.958Z,19.90
2023-02-20T05:41:28.266Z,19.90
2023-02-20T05:42:30.835Z,19.90
2023-02-20T05:43:33.225Z,19.90
2023-02-20T05:44:36.182Z,19.90
2023-02-20T05:45:38.484Z,19.90
2023-02-20T05:46:42.623Z,19.90
2023-02-20T05:47:45.014Z,19.90
2023-02-20T05:48:50.736Z,19.90
2023-02-20T05:49:53.011Z,19.40
2023-02-20T05:50:55.418Z,19.20
2023-02-20T05:51:58.365Z,19.40
2023-02-20T05:53:00.669Z,19.50
2023-02-20T05:54:04.158Z,19.60
2023-02-20T05:55:06.774Z,19.70
2023-02-20T05:56:09.311Z,19.70
2023-02-20T05:57:12.895Z,19.70
2023-02-20T05:58:15.365Z,19.70
2023-02-20T05:59:20.679Z,19.80
2023-02-20T06:00:23.788Z,19.80
2023-02-20T06:01:30.958Z,19.80
2023-02-20T06:02:36.268Z,19.80
2023-02-20T06:03:38.791Z,19.90
2023-02-20T06:04:41.196Z,19.90
2023-02-20T06:05:43.938Z,19.90
2023-02-20T06:06:46.548Z,19.90
2023-02-20T06:07:48.844Z,19.90
2023-02-20T06:08:51.265Z,19.50
2023-02-20T06:09:53.530Z,19.30
2023-02-20T06:10:55.978Z,19.40
2023-02-20T06:11:58.423Z,19.60
2023-02-20T06:13:01.159Z,19.60
2023-02-20T06:14:04.760Z,19.70
2023-02-20T06:15:07.344Z,19.80
2023-02-20T06:16:10.037Z,19.80
2023-02-20T06:17:12.456Z,19.80
2023-02-20T06:18:14.825Z,19.80
2023-02-20T06:19:23.703Z,19.90
2023-02-20T06:20:26.221Z,19.90
2023-02-20T06:21:28.984Z,19.90
2023-02-20T06:22:31.567Z,19.90
2023-02-20T06:23:34.119Z,19.90
2023-02-20T06:24:36.873Z,19.90
2023-02-20T06:25:39.429Z,20.00
2023-02-20T06:26:42.502Z,20.00
2023-02-20T06:27:44.955Z,20.00
2023-02-20T06:28:50.672Z,20.00
2023-02-20T06:29:53.040Z,20.00
2023-02-20T06:30:56.070Z,20.10
2023-02-20T06:32:00.024Z,20.10
2023-02-20T06:33:02.439Z,20.10
2023-02-20T06:34:05.084Z,20.10
2023-02-20T06:35:08.160Z,20.10
2023-02-20T06:36:22.935Z,20.10
2023-02-20T06:37:25.249Z,20.10
2023-02-20T06:38:28.352Z,20.10
2023-02-20T06:39:31.818Z,20.20
2023-02-20T06:40:34.125Z,20.10
2023-02-20T06:41:36.893Z,20.20
2023-02-20T06:42:39.230Z,20.20
2023-02-20T06:43:41.507Z,20.20
2023-02-20T06:44:43.852Z,20.20
2023-02-20T06:45:47.027Z,20.20
2023-02-20T06:46:49.666Z,20.20
2023-02-20T06:47:52.223Z,20.20
2023-02-20T06:48:56.788Z,20.20
2023-02-20T06:49:59.083Z,20.20
2023-02-20T06:51:01.371Z,20.20
2023-02-20T06:52:06.962Z,20.20
2023-02-20T06:53:09.709Z,20.20
2023-02-20T06:54:13.204Z,20.20
2023-02-20T06:55:15.624Z,20.30
2023-02-20T06:56:20.309Z,20.30
2023-02-20T06:57:22.662Z,20.30
2023-02-20T06:58:24.977Z,20.30
2023-02-20T06:59:27.391Z,20.20
2023-02-20T07:00:29.897Z,20.20
2023-02-20T07:01:41.374Z,20.20
2023-02-20T07:02:43.802Z,20.20
2023-02-20T07:03:48.779Z,20.20
2023-02-20T07:04:51.218Z,20.20
2023-02-20T07:05:53.839Z,20.10
2023-02-20T07:06:56.395Z,20.10
2023-02-20T07:07:58.666Z,20.20
2023-02-20T07:09:00.973Z,20.20
2023-02-20T07:10:04.563Z,20.20
2023-02-20T07:11:07.399Z,20.20
2023-02-20T07:12:09.751Z,20.30
2023-02-20T07:13:12.074Z,20.30
2023-02-20T07:14:14.448Z,20.30
2023-02-20T07:15:18.887Z,20.30
2023-02-20T07:16:22.063Z,20.30
2023-02-20T07:17:24.513Z,20.30
2023-02-20T07:18:27.322Z,20.30
2023-02-20T07:19:29.626Z,20.30
2023-02-20T07:20:31.925Z,20.30
2023-02-20T07:21:34.331Z,20.30
2023-02-20T07:22:36.615Z,20.30
2023-02-20T07:23:38.890Z,20.30
2023-02-20T07:24:41.728Z,20.30
2023-02-20T07:25:44.814Z,20.30
2023-02-20T07:26:47.929Z,20.40
2023-02-20T07:27:50.522Z,20.30
2023-02-20T07:28:54.793Z,20.40
2023-02-20T07:29:57.268Z,20.40
2023-02-20T07:30:59.607Z,20.40
2023-02-20T07:32:02.054Z,20.40
2023-02-20T07:33:04.514Z,20.40
2023-02-20T07:34:06.856Z,20.40
2023-02-20T07:35:13.729Z,20.40
2023-02-20T07:36:16.732Z,20.40
2023-02-20T07:37:19.024Z,20.40
2023-02-20T07:38:21.301Z,20.50
2023-02-20T07:39:24.044Z,20.40
2023-02-20T07:40:26.384Z,20.40
2023-02-20T07:41:32.172Z,20.40
2023-02-20T07:42:34.688Z,20.40
2023-02-20T07:43:57.406Z,20.40
2023-02-20T07:44:59.736Z,20.40
2023-02-20T07:46:02.039Z,20.30
2023-02-20T07:47:04.405Z,20.30
2023-02-20T07:48:06.779Z,20.30
2023-02-20T07:49:09.158Z,20.30
2023-02-20T07:50:11.915Z,20.30
2023-02-20T07:51:15.083Z,20.30
2023-02-20T07:52:17.473Z,20.30
2023-02-20T07:53:21.535Z,20.40
2023-02-20T07:54:23.861Z,20.40
2023-02-20T07:55:26.229Z,20.40
2023-02-20T07:56:28.860Z,20.40
2023-02-20T07:57:34.138Z,20.40
2023-02-20T07:58:36.731Z,20.40
2023-02-20T07:59:39.251Z,20.50
2023-02-20T08:00:41.615Z,20.50
2023-02-20T08:01:44.551Z,20.50
2023-02-20T08:02:47.237Z,20.50
2023-02-20T08:03:49.595Z,20.50
2023-02-20T08:04:51.950Z,20.50
2023-02-20T08:05:54.434Z,20.50
2023-02-20T08:06:57.079Z,20.50
2023-02-20T08:07:59.355Z,20.50
2023-02-20T08:09:01.946Z,20.50
2023-02-20T08:10:05.824Z,20.60
2023-02-20T08:11:10.135Z,20.60
2023-02-20T08:12:13.181Z,20.60
2023-02-20T08:13:15.504Z,20.50
2023-02-20T08:14:17.881Z,20.50
2023-02-20T08:15:21.839Z,20.40
2023-02-20T08:16:24.737Z,20.30
2023-02-20T08:17:37.237Z,20.30
2023-02-20T08:18:46.746Z,20.30
2023-02-20T08:19:49.036Z,20.30
2023-02-20T08:20:52.750Z,20.30
2023-02-20T08:21:55.057Z,20.20
2023-02-20T08:22:57.397Z,20.20
2023-02-20T08:23:59.765Z,20.20
2023-02-20T08:25:04.047Z,20.10
2023-02-20T08:26:06.912Z,20.00
2023-02-20T08:27:09.233Z,20.10
2023-02-20T08:28:11.765Z,20.20
2023-02-20T08:29:15.656Z,20.30
2023-02-20T08:30:24.730Z,20.30
2023-02-20T08:31:32.590Z,20.40
2023-02-20T08:32:35.615Z,20.40
2023-02-20T08:33:37.996Z,20.50
2023-02-20T08:34:40.983Z,20.50
2023-02-20T08:35:43.448Z,20.50
2023-02-20T08:36:45.848Z,20.50
2023-02-20T08:37:48.278Z,20.50
2023-02-20T08:38:50.629Z,20.50
2023-02-20T08:39:53.111Z,20.60
2023-02-20T08:40:56.489Z,20.60
2023-02-20T08:41:58.903Z,20.50
2023-02-20T08:43:01.285Z,20.60
2023-02-20T08:44:03.806Z,20.60
2023-02-20T08:45:07.518Z,20.60
2023-02-20T08:46:10.169Z,20.60
2023-02-20T08:47:12.498Z,20.60
2023-02-20T08:48:14.858Z,20.60
2023-02-20T08:49:18.197Z,20.60
2023-02-20T08:50:20.795Z,20.50
2023-02-20T08:51:23.373Z,20.30
2023-02-20T08:52:25.849Z,20.10
2023-02-20T08:53:28.200Z,19.70
2023-02-20T08:54:30.532Z,19.60
2023-02-20T08:55:32.909Z,19.60
2023-02-20T08:56:35.227Z,19.50
2023-02-20T08:57:37.522Z,19.40
2023-02-20T08:58:40.068Z,19.30
2023-02-20T08:59:42.412Z,19.60
2023-02-20T09:00:44.860Z,19.70
2023-02-20T09:01:47.455Z,19.80
2023-02-20T09:02:49.942Z,20.00
2023-02-20T09:03:52.585Z,20.10
2023-02-20T09:04:55.909Z,20.10
2023-02-20T09:05:58.210Z,20.20
2023-02-20T09:07:00.564Z,20.30
2023-02-20T09:08:03.237Z,20.30
2023-02-20T09:09:05.564Z,20.30
2023-02-20T09:10:09.350Z,20.40
2023-02-20T09:11:12.086Z,20.40
2023-02-20T09:12:14.671Z,20.40
2023-02-20T09:13:17.099Z,20.50
2023-02-20T09:14:19.356Z,20.50
2023-02-20T09:15:21.645Z,20.50
2023-02-20T09:16:24.966Z,20.50
2023-02-20T09:17:28.434Z,20.50
2023-02-20T09:18:30.808Z,20.50
2023-02-20T09:19:33.215Z,20.60
2023-02-20T09:20:35.985Z,20.60
2023-02-20T09:21:38.307Z,20.60
2023-02-20T09:22:40.651Z,20.60
2023-02-20T09:23:43.018Z,20.60
2023-02-20T09:24:47.317Z,20.60
2023-02-20T09:25:49.803Z,20.60
2023-02-20T09:26:52.116Z,20.60
2023-02-20T09:27:54.529Z,20.60
2023-02-20T09:28:57.078Z,20.60
2023-02-20T09:29:59.434Z,20.70
2023-02-20T09:31:02.159Z,20.60
2023-02-20T09:32:05.009Z,20.70
2023-02-20T09:33:07.531Z,20.70
2023-02-20T09:34:10.024Z,20.70
2023-02-20T09:35:26.284Z,20.70
2023-02-20T09:36:28.612Z,20.70
2023-02-20T09:37:30.917Z,20.70
2023-02-20T09:38:33.219Z,20.70
2023-02-20T09:39:35.508Z,20.70
2023-02-20T09:40:38.169Z,20.70
2023-02-20T09:42:08.980Z,20.70
2023-02-20T09:43:39.921Z,20.70
2023-02-20T09:44:46.573Z,20.70
2023-02-20T09:46:06.341Z,20.70
2023-02-20T09:47:20.193Z,20.70
2023-02-20T09:48:45.892Z,20.70
2023-02-20T09:49:48.215Z,20.70
2023-02-20T09:51:01.849Z,20.60
2023-02-20T09:52:10.623Z,20.70
2023-02-20T09:53:23.913Z,20.60
2023-02-20T09:54:34.462Z,20.60
2023-02-20T09:55:40.519Z,20.60
2023-02-20T09:56:48.438Z,20.50
2023-02-20T09:57:53.540Z,20.50
2023-02-20T09:59:22.508Z,20.50
2023-02-20T10:00:30.549Z,20.50
2023-02-20T10:01:35.424Z,20.50
2023-02-20T10:02:39.914Z,20.60
2023-02-20T10:03:54.611Z,20.60
2023-02-20T10:05:04.440Z,20.70
2023-02-20T10:06:32.668Z,20.70
2023-02-20T10:07:41.942Z,20.70
2023-02-20T10:08:44.701Z,20.80
2023-02-20T10:09:47.547Z,20.80
2023-02-20T10:10:53.011Z,20.80
2023-02-20T10:12:15.647Z,20.80
2023-02-20T10:13:46.110Z,20.80
2023-02-20T10:15:10.025Z,20.90
2023-02-20T10:16:27.045Z,20.90
2023-02-20T10:17:44.885Z,20.90
2023-02-20T10:18:57.369Z,20.90
2023-02-20T10:20:09.635Z,20.90
2023-02-20T10:21:18.126Z,20.90
2023-02-20T10:22:33.860Z,20.90
2023-02-20T10:23:53.992Z,20.70
2023-02-20T10:25:14.118Z,20.50
2023-02-20T10:26:29.227Z,20.40
2023-02-20T10:27:56.202Z,20.30
2023-02-20T10:29:15.387Z,20.20
2023-02-20T10:30:38.250Z,20.20
2023-02-20T10:31:59.911Z,20.20
2023-02-20T10:33:42.140Z,20.20
2023-02-20T10:35:07.690Z,20.40
2023-02-20T10:36:23.097Z,20.60
2023-02-20T10:37:46.381Z,20.60
2023-02-20T10:38:55.792Z,20.70
2023-02-20T10:40:39.696Z,20.70
2023-02-20T10:41:54.667Z,20.80
2023-02-20T10:43:03.149Z,20.80
2023-02-20T10:44:19.238Z,20.80
2023-02-20T10:45:38.494Z,20.90
2023-02-20T10:46:54.155Z,20.80
2023-02-20T10:48:06.506Z,20.90
2023-02-20T10:49:16.090Z,20.90
2023-02-20T10:50:32.098Z,20.90
2023-02-20T10:51:45.709Z,20.90
2023-02-20T10:53:22.524Z,20.90
2023-02-20T10:54:42.357Z,20.90
2023-02-20T10:56:01.160Z,21.00
2023-02-20T10:57:12.995Z,20.90
2023-02-20T10:58:31.812Z,21.00
2023-02-20T11:00:00.205Z,21.00
2023-02-20T11:01:06.294Z,21.00
2023-02-20T11:02:19.108Z,21.00
2023-02-20T11:03:44.463Z,21.00
2023-02-20T11:04:57.572Z,21.00
2023-02-20T11:06:02.443Z,21.00
2023-02-20T11:07:18.200Z,21.00
2023-02-20T11:08:21.750Z,20.90
2023-02-20T11:09:25.474Z,21.00
2023-02-20T11:10:27.928Z,20.90
2023-02-20T11:11:44.123Z,21.00
2023-02-20T11:12:57.092Z,21.00
2023-02-20T11:14:02.160Z,21.00
2023-02-20T11:15:11.596Z,21.00
2023-02-20T11:16:34.197Z,21.00
2023-02-20T11:17:39.627Z,21.00
2023-02-20T11:18:42.418Z,21.00
2023-02-20T11:19:50.278Z,21.00
2023-02-20T11:20:56.485Z,21.00
2023-02-20T11:21:58.864Z,21.00
2023-02-20T11:23:02.546Z,21.00
2023-02-20T11:24:35.368Z,21.00
2023-02-20T11:25:41.940Z,21.00
2023-02-20T11:26:44.725Z,21.00
2023-02-20T11:27:51.250Z,21.00
2023-02-20T11:29:04.608Z,21.00
2023-02-20T11:30:35.863Z,21.00
2023-02-20T11:31:39.176Z,21.00
2023-02-20T11:32:43.444Z,21.00
2023-02-20T11:33:49.143Z,21.00
2023-02-20T11:35:19.231Z,21.00
2023-02-20T11:36:31.871Z,21.00
2023-02-20T11:37:40.008Z,21.00
2023-02-20T11:38:46.074Z,21.00
2023-02-20T11:39:48.709Z,21.00
2023-02-20T11:40:54.034Z,21.00
2023-02-20T11:42:12.158Z,21.00
2023-02-20T11:43:14.479Z,21.00
2023-02-20T11:44:23.734Z,21.00
2023-02-20T11:45:29.102Z,21.00
2023-02-20T11:46:31.533Z,21.00
2023-02-20T11:47:34.124Z,21.00
2023-02-20T11:48:39.114Z,21.00
2023-02-20T11:49:42.824Z,21.00
2023-02-20T11:50:52.570Z,21.00
2023-02-20T11:52:08.682Z,21.00
2023-02-20T11:53:25.203Z,21.00
2023-02-20T11:54:32.203Z,21.10
2023-02-20T11:55:35.155Z,21.00
2023-02-20T11:56:37.452Z,21.10
2023-02-20T11:57:44.790Z,21.10
2023-02-20T11:58:47.320Z,21.00
2023-02-20T11:59:51.922Z,21.00
2023-02-20T12:00:55.435Z,21.10
2023-02-20T12:02:15.711Z,21.00
2023-02-20T12:03:24.905Z,21.00
2023-02-20T12:04:27.254Z,21.00
2023-02-20T12:05:41.470Z,21.00
2023-02-20T12:06:43.833Z,21.00
2023-02-20T12:07:51.852Z,21.00
2023-02-20T12:08:56.219Z,21.00
2023-02-20T12:10:05.884Z,21.00
2023-02-20T12:11:09.992Z,21.00
2023-02-20T12:12:14.372Z,21.00
2023-02-20T12:13:17.666Z,21.00
2023-02-20T12:14:20.536Z,21.00
2023-02-20T12:15:26.689Z,21.00
2023-02-20T12:16:49.020Z,21.00
2023-02-20T12:18:28.859Z,21.00
2023-02-20T12:20:04.689Z,21.00
2023-02-20T12:21:49.452Z,21.00
2023-02-20T12:23:20.550Z,21.00
2023-02-20T12:24:54.222Z,21.00
2023-02-20T12:26:13.168Z,21.00
2023-02-20T12:27:33.956Z,21.00
2023-02-20T12:28:49.577Z,21.00
2023-02-20T12:30:15.776Z,21.00
2023-02-20T12:31:33.563Z,21.00
2023-02-20T12:32:53.665Z,21.00
2023-02-20T12:34:18.578Z,21.00
2023-02-20T12:35:35.866Z,21.00
2023-02-20T12:36:42.733Z,21.00
2023-02-20T12:38:12.725Z,21.00
2023-02-20T12:39:57.871Z,21.00
2023-02-20T12:41:37.616Z,21.00
2023-02-20T12:42:46.906Z,20.90
2023-02-20T12:44:12.394Z,20.90
2023-02-20T12:45:38.630Z,20.90
2023-02-20T12:47:09.868Z,20.90
2023-02-20T12:48:24.466Z,21.00
2023-02-20T12:49:51.131Z,20.80
2023-02-20T12:51:18.156Z,20.50
2023-02-20T12:52:31.586Z,20.10
2023-02-20T12:54:03.746Z,20.30
2023-02-20T12:55:30.153Z,20.40
2023-02-20T12:56:47.983Z,20.50
2023-02-20T12:58:15.737Z,20.50
2023-02-20T13:00:08.783Z,20.60
2023-02-20T13:01:13.874Z,20.60
2023-02-20T13:02:40.977Z,20.70
2023-02-20T13:04:11.289Z,20.70
2023-02-20T13:05:20.079Z,20.70
2023-02-20T13:06:44.702Z,20.80
2023-02-20T13:07:56.678Z,20.80
2023-02-20T13:09:18.316Z,20.80
2023-02-20T13:10:32.690Z,20.80
2023-02-20T13:11:41.750Z,20.80
2023-02-20T13:12:44.394Z,20.80
2023-02-20T13:14:13.677Z,20.80
2023-02-20T13:15:30.904Z,20.90
2023-02-20T13:17:09.914Z,20.90
2023-02-20T13:18:31.072Z,20.80
2023-02-20T13:19:56.547Z,20.90
2023-02-20T13:21:16.243Z,20.90
2023-02-20T13:22:18.686Z,20.90
2023-02-20T13:23:20.909Z,20.80
2023-02-20T13:24:23.228Z,20.90
2023-02-20T13:25:35.257Z,20.90
2023-02-20T13:26:59.263Z,21.00
2023-02-20T13:28:22.261Z,21.00
2023-02-20T13:29:27.799Z,21.00
2023-02-20T13:30:33.907Z,21.00
2023-02-20T13:31:36.497Z,21.00
2023-02-20T13:32:38.917Z,21.10
2023-02-20T13:33:44.011Z,21.10
2023-02-20T13:34:46.464Z,21.10
2023-02-20T13:35:54.820Z,21.10
2023-02-20T13:36:57.809Z,21.10
2023-02-20T13:38:14.667Z,21.00
2023-02-20T13:39:35.067Z,21.10
2023-02-20T13:40:40.285Z,21.10
2023-02-20T13:41:54.722Z,21.10
2023-02-20T13:43:15.541Z,21.10
2023-02-20T13:44:44.479Z,21.10
2023-02-20T13:45:48.341Z,21.10
2023-02-20T13:47:22.109Z,21.10
2023-02-20T13:48:29.140Z,21.10
2023-02-20T13:49:52.403Z,21.10
2023-02-20T13:51:16.579Z,21.10
2023-02-20T13:52:41.107Z,21.10
2023-02-20T13:53:53.375Z,21.00
2023-02-20T13:55:10.515Z,21.00
2023-02-20T13:56:20.353Z,21.00
2023-02-20T13:57:23.567Z,21.00
2023-02-20T13:58:27.113Z,21.00
2023-02-20T13:59:30.758Z,21.10
2023-02-20T14:00:53.886Z,21.10
2023-02-20T14:02:17.200Z,21.10
2023-02-20T14:03:28.877Z,21.10
2023-02-20T14:04:32.572Z,21.10
2023-02-20T14:05:34.944Z,21.10
2023-02-20T14:06:57.981Z,21.10
2023-02-20T14:08:00.955Z,21.10
2023-02-20T14:09:19.925Z,21.20
2023-02-20T14:10:37.373Z,21.10
2023-02-20T14:11:40.109Z,21.20
2023-02-20T14:12:42.474Z,21.20
2023-02-20T14:13:47.948Z,21.10
2023-02-20T14:14:50.325Z,21.10
2023-02-20T14:15:57.520Z,21.20
2023-02-20T14:17:15.742Z,21.20
2023-02-20T14:18:21.494Z,21.20
2023-02-20T14:19:29.927Z,21.20
2023-02-20T14:20:36.077Z,21.20
2023-02-20T14:21:38.647Z,21.20
2023-02-20T14:22:41.061Z,21.20
2023-02-20T14:23:44.495Z,21.20
2023-02-20T14:25:00.117Z,21.20
2023-02-20T14:26:05.372Z,21.20
2023-02-20T14:27:28.214Z,21.20
2023-02-20T14:28:36.587Z,21.20
2023-02-20T14:29:38.959Z,21.20
2023-02-20T14:30:41.902Z,21.20
2023-02-20T14:31:44.626Z,21.20
2023-02-20T14:32:50.866Z,21.20
2023-02-20T14:34:07.109Z,21.20
2023-02-20T14:35:47.431Z,21.20
2023-02-20T14:37:17.659Z,21.20
2023-02-20T14:38:38.693Z,21.20
2023-02-20T14:40:01.979Z,21.20
2023-02-20T14:41:16.795Z,21.20
2023-02-20T14:42:24.391Z,21.20
2023-02-20T14:43:28.477Z,21.20